sensor_id;sensor_type;location;lat;lon;timestamp;P1;durP1;ratioP1;P2;durP2;ratioP2
3613;SDS011;1821;50.936;6.854;2023-03-14T00:00:09;6.32;;;2.13;;
3613;SDS011;1821;50.936;6.854;2023-03-14T00:00:52;5.97;;;1.80;;
3613;SDS011;1821;50.936;6.854;2023-03-14T00:01:34;5.82;;;2.17;;
3613;SDS011;1821;50.936;6.854;2023-03-14T00:02:18;5.10;;;1.90;;
3613;SDS011;1821;50.936;6.854;2023-03-14T00:03:00;7.30;;;1.92;;
3613;SDS011;1821;50.936;6.854;2023-03-14T00:03:42;4.18;;;1.65;;
3613;SDS011;1821;50.936;6.854;2023-03-14T00:04:25;4.30;;;1.80;;
3613;SDS011;1821;50.936;6.854;2023-03-14T00:05:07;3.33;;;1.60;;
3613;SDS011;1821;50.936;6.854;2023-03-14T00:05:50;5.72;;;2.10;;
3613;SDS011;1821;50.936;6.854;2023-03-14T00:06:34;6.97;;;2.38;;
3613;SDS011;1821;50.936;6.854;2023-03-14T00:07:16;5.80;;;2.08;;
3613;SDS011;1821;50.936;6.854;2023-03-14T00:07:58;6.00;;;1.75;;
3613;SDS011;1821;50.936;6.854;2023-03-14T00:08:40;6.68;;;1.90;;
3613;SDS011;1821;50.936;6.854;2023-03-14T00:09:23;5.05;;;1.70;;
3613;SDS011;1821;50.936;6.854;2023-03-14T00:10:09;4.70;;;2.30;;
3613;SDS011;1821;50.936;6.854;2023-03-14T00:10:53;4.85;;;2.20;;
3613;SDS011;1821;50.936;6.854;2023-03-14T00:11:35;10.25;;;2.40;;
3613;SDS011;1821;50.936;6.854;2023-03-14T00:12:17;8.05;;;2.40;;
3613;SDS011;1821;50.936;6.854;2023-03-14T00:12:59;7.18;;;2.40;;
3613;SDS011;1821;50.936;6.854;2023-03-14T00:13:41;6.18;;;2.28;;
3613;SDS011;1821;50.936;6.854;2023-03-14T00:14:23;6.78;;;2.50;;
3613;SDS011;1821;50.936;6.854;2023-03-14T00:15:06;7.13;;;2.03;;
3613;SDS011;1821;50.936;6.854;2023-03-14T00:15:49;6.75;;;2.20;;
3613;SDS011;1821;50.936;6.854;2023-03-14T00:16:31;5.68;;;1.90;;
3613;SDS011;1821;50.936;6.854;2023-03-14T00:17:14;4.95;;;2.05;;
3613;SDS011;1821;50.936;6.854;2023-03-14T00:17:57;9.40;;;2.38;;
3613;SDS011;1821;50.936;6.854;2023-03-14T00:18:41;5.85;;;1.80;;
3613;SDS011;1821;50.936;6.854;2023-03-14T00:19:23;7.80;;;2.72;;
3613;SDS011;1821;50.936;6.854;2023-03-14T00:20:05;4.88;;;2.13;;
3613;SDS011;1821;50.936;6.854;2023-03-14T00:20:52;4.90;;;2.33;;
3613;SDS011;1821;50.936;6.854;2023-03-14T00:21:34;6.07;;;2.20;;
3613;SDS011;1821;50.936;6.854;2023-03-14T00:22:16;5.88;;;1.90;;
3613;SDS011;1821;50.936;6.854;2023-03-14T00:22:58;3.53;;;1.40;;
3613;SDS011;1821;50.936;6.854;2023-03-14T00:23:40;4.53;;;1.90;;
3613;SDS011;1821;50.936;6.854;2023-03-14T00:24:23;8.52;;;2.33;;
3613;SDS011;1821;50.936;6.854;2023-03-14T00:25:07;6.30;;;2.50;;
3613;SDS011;1821;50.936;6.854;2023-03-14T00:25:50;4.90;;;2.30;;
3613;SDS011;1821;50.936;6.854;2023-03-14T00:26:32;4.90;;;2.08;;
3613;SDS011;1821;50.936;6.854;2023-03-14T00:27:14;6.90;;;2.30;;
3613;SDS011;1821;50.936;6.854;2023-03-14T00:27:56;6.63;;;2.90;;
3613;SDS011;1821;50.936;6.854;2023-03-14T00:28:38;9.20;;;2.90;;
3613;SDS011;1821;50.936;6.854;2023-03-14T00:29:20;8.10;;;2.40;;
3613;SDS011;1821;50.936;6.854;2023-03-14T00:30:02;6.80;;;2.50;;
3613;SDS011;1821;50.936;6.854;2023-03-14T00:30:48;8.05;;;2.10;;
3613;SDS011;1821;50.936;6.854;2023-03-14T00:31:33;10.30;;;2.63;;
3613;SDS011;1821;50.936;6.854;2023-03-14T00:32:17;10.15;;;3.35;;
3613;SDS011;1821;50.936;6.854;2023-03-14T00:32:59;9.00;;;2.50;;
3613;SDS011;1821;50.936;6.854;2023-03-14T00:33:43;8.10;;;2.00;;
3613;SDS011;1821;50.936;6.854;2023-03-14T00:34:29;5.40;;;2.15;;
3613;SDS011;1821;50.936;6.854;2023-03-14T00:35:11;4.95;;;2.20;;
3613;SDS011;1821;50.936;6.854;2023-03-14T00:35:57;7.57;;;2.40;;
3613;SDS011;1821;50.936;6.854;2023-03-14T00:36:41;6.88;;;2.50;;
3613;SDS011;1821;50.936;6.854;2023-03-14T00:37:23;5.13;;;2.10;;
3613;SDS011;1821;50.936;6.854;2023-03-14T00:38:05;7.13;;;2.20;;
3613;SDS011;1821;50.936;6.854;2023-03-14T00:38:48;9.18;;;2.17;;
3613;SDS011;1821;50.936;6.854;2023-03-14T00:39:31;7.07;;;2.65;;
3613;SDS011;1821;50.936;6.854;2023-03-14T00:40:16;5.18;;;2.50;;
3613;SDS011;1821;50.936;6.854;2023-03-14T00:40:58;5.25;;;2.30;;
3613;SDS011;1821;50.936;6.854;2023-03-14T00:41:40;6.13;;;2.10;;
3613;SDS011;1821;50.936;6.854;2023-03-14T00:42:22;6.53;;;2.20;;
3613;SDS011;1821;50.936;6.854;2023-03-14T00:43:06;7.57;;;2.03;;
3613;SDS011;1821;50.936;6.854;2023-03-14T00:43:49;9.50;;;2.78;;
3613;SDS011;1821;50.936;6.854;2023-03-14T00:44:32;7.68;;;2.42;;
3613;SDS011;1821;50.936;6.854;2023-03-14T00:45:14;7.13;;;2.15;;
3613;SDS011;1821;50.936;6.854;2023-03-14T00:45:56;6.38;;;2.20;;
3613;SDS011;1821;50.936;6.854;2023-03-14T00:46:38;6.18;;;2.22;;
3613;SDS011;1821;50.936;6.854;2023-03-14T00:47:21;7.60;;;2.30;;
3613;SDS011;1821;50.936;6.854;2023-03-14T00:48:04;6.10;;;2.10;;
3613;SDS011;1821;50.936;6.854;2023-03-14T00:48:46;9.50;;;2.55;;
3613;SDS011;1821;50.936;6.854;2023-03-14T00:49:28;6.95;;;3.20;;
3613;SDS011;1821;50.936;6.854;2023-03-14T00:50:10;8.52;;;2.65;;
3613;SDS011;1821;50.936;6.854;2023-03-14T00:50:52;9.32;;;2.90;;
3613;SDS011;1821;50.936;6.854;2023-03-14T00:51:34;8.98;;;2.60;;
3613;SDS011;1821;50.936;6.854;2023-03-14T00:52:18;7.18;;;2.30;;
3613;SDS011;1821;50.936;6.854;2023-03-14T00:53:01;5.22;;;2.00;;
3613;SDS011;1821;50.936;6.854;2023-03-14T00:53:43;5.18;;;2.13;;
3613;SDS011;1821;50.936;6.854;2023-03-14T00:54:25;7.38;;;2.38;;
3613;SDS011;1821;50.936;6.854;2023-03-14T00:55:07;6.15;;;2.22;;
3613;SDS011;1821;50.936;6.854;2023-03-14T00:55:49;4.57;;;2.03;;
3613;SDS011;1821;50.936;6.854;2023-03-14T00:56:32;7.20;;;2.10;;
3613;SDS011;1821;50.936;6.854;2023-03-14T00:57:16;6.38;;;2.40;;
3613;SDS011;1821;50.936;6.854;2023-03-14T00:57:58;6.10;;;2.30;;
3613;SDS011;1821;50.936;6.854;2023-03-14T00:58:41;4.45;;;1.80;;
3613;SDS011;1821;50.936;6.854;2023-03-14T00:59:23;5.15;;;2.05;;
3613;SDS011;1821;50.936;6.854;2023-03-14T01:00:05;7.10;;;1.90;;
3613;SDS011;1821;50.936;6.854;2023-03-14T01:00:49;6.50;;;1.70;;
3613;SDS011;1821;50.936;6.854;2023-03-14T01:01:33;7.47;;;1.92;;
3613;SDS011;1821;50.936;6.854;2023-03-14T01:02:15;8.80;;;2.00;;
3613;SDS011;1821;50.936;6.854;2023-03-14T01:02:57;6.28;;;2.03;;
3613;SDS011;1821;50.936;6.854;2023-03-14T01:03:40;4.32;;;1.80;;
3613;SDS011;1821;50.936;6.854;2023-03-14T01:04:22;4.32;;;1.50;;
3613;SDS011;1821;50.936;6.854;2023-03-14T01:05:03;5.80;;;1.80;;
3613;SDS011;1821;50.936;6.854;2023-03-14T01:05:46;5.80;;;1.85;;
3613;SDS011;1821;50.936;6.854;2023-03-14T01:06:28;6.35;;;1.73;;
3613;SDS011;1821;50.936;6.854;2023-03-14T01:07:11;8.80;;;2.28;;
3613;SDS011;1821;50.936;6.854;2023-03-14T01:07:53;6.38;;;2.40;;
3613;SDS011;1821;50.936;6.854;2023-03-14T01:08:35;5.50;;;2.17;;
3613;SDS011;1821;50.936;6.854;2023-03-14T01:09:17;4.47;;;1.70;;
3613;SDS011;1821;50.936;6.854;2023-03-14T01:09:59;5.57;;;1.83;;
3613;SDS011;1821;50.936;6.854;2023-03-14T01:10:44;4.90;;;1.60;;
3613;SDS011;1821;50.936;6.854;2023-03-14T01:11:27;4.85;;;1.90;;
3613;SDS011;1821;50.936;6.854;2023-03-14T01:12:10;10.32;;;2.40;;
3613;SDS011;1821;50.936;6.854;2023-03-14T01:12:53;9.07;;;2.28;;
3613;SDS011;1821;50.936;6.854;2023-03-14T01:13:35;4.70;;;2.15;;
3613;SDS011;1821;50.936;6.854;2023-03-14T01:14:17;6.80;;;2.50;;
3613;SDS011;1821;50.936;6.854;2023-03-14T01:14:59;8.00;;;2.28;;
3613;SDS011;1821;50.936;6.854;2023-03-14T01:15:43;7.85;;;2.47;;
3613;SDS011;1821;50.936;6.854;2023-03-14T01:16:26;5.10;;;2.17;;
3613;SDS011;1821;50.936;6.854;2023-03-14T01:17:09;4.30;;;1.88;;
3613;SDS011;1821;50.936;6.854;2023-03-14T01:17:51;4.53;;;1.75;;
3613;SDS011;1821;50.936;6.854;2023-03-14T01:18:33;7.75;;;2.55;;
3613;SDS011;1821;50.936;6.854;2023-03-14T01:19:18;5.15;;;2.10;;
3613;SDS011;1821;50.936;6.854;2023-03-14T01:20:01;5.93;;;1.80;;
3613;SDS011;1821;50.936;6.854;2023-03-14T01:20:45;4.50;;;1.50;;
3613;SDS011;1821;50.936;6.854;2023-03-14T01:21:28;4.60;;;1.90;;
3613;SDS011;1821;50.936;6.854;2023-03-14T01:22:12;5.53;;;2.40;;
3613;SDS011;1821;50.936;6.854;2023-03-14T01:22:54;4.72;;;2.10;;
3613;SDS011;1821;50.936;6.854;2023-03-14T01:23:36;4.82;;;1.85;;
3613;SDS011;1821;50.936;6.854;2023-03-14T01:24:18;7.75;;;2.00;;
3613;SDS011;1821;50.936;6.854;2023-03-14T01:25:00;6.13;;;2.20;;
3613;SDS011;1821;50.936;6.854;2023-03-14T01:25:42;4.93;;;1.95;;
3613;SDS011;1821;50.936;6.854;2023-03-14T01:26:25;4.10;;;1.80;;
3613;SDS011;1821;50.936;6.854;2023-03-14T01:27:08;5.65;;;1.75;;
3613;SDS011;1821;50.936;6.854;2023-03-14T01:27:50;6.30;;;2.00;;
3613;SDS011;1821;50.936;6.854;2023-03-14T01:28:33;6.90;;;2.35;;
3613;SDS011;1821;50.936;6.854;2023-03-14T01:29:15;9.23;;;2.17;;
3613;SDS011;1821;50.936;6.854;2023-03-14T01:29:57;8.70;;;2.40;;
3613;SDS011;1821;50.936;6.854;2023-03-14T01:30:40;6.43;;;1.75;;
3613;SDS011;1821;50.936;6.854;2023-03-14T01:31:22;8.02;;;1.98;;
3613;SDS011;1821;50.936;6.854;2023-03-14T01:32:06;10.63;;;2.35;;
3613;SDS011;1821;50.936;6.854;2023-03-14T01:32:49;6.05;;;2.10;;
3613;SDS011;1821;50.936;6.854;2023-03-14T01:33:31;5.00;;;2.17;;
3613;SDS011;1821;50.936;6.854;2023-03-14T01:34:13;8.50;;;2.80;;
3613;SDS011;1821;50.936;6.854;2023-03-14T01:34:55;6.78;;;2.10;;
3613;SDS011;1821;50.936;6.854;2023-03-14T01:35:37;6.82;;;2.10;;
3613;SDS011;1821;50.936;6.854;2023-03-14T01:36:19;7.63;;;2.30;;
3613;SDS011;1821;50.936;6.854;2023-03-14T01:37:01;7.70;;;2.17;;
3613;SDS011;1821;50.936;6.854;2023-03-14T01:37:43;8.40;;;2.28;;
3613;SDS011;1821;50.936;6.854;2023-03-14T01:38:25;7.30;;;2.08;;
3613;SDS011;1821;50.936;6.854;2023-03-14T01:39:07;9.52;;;2.50;;
3613;SDS011;1821;50.936;6.854;2023-03-14T01:39:50;7.60;;;2.22;;
3613;SDS011;1821;50.936;6.854;2023-03-14T01:40:31;7.82;;;2.63;;
3613;SDS011;1821;50.936;6.854;2023-03-14T01:41:15;6.10;;;2.40;;
3613;SDS011;1821;50.936;6.854;2023-03-14T01:42:00;7.30;;;1.88;;
3613;SDS011;1821;50.936;6.854;2023-03-14T01:42:55;8.45;;;2.40;;
3613;SDS011;1821;50.936;6.854;2023-03-14T01:43:38;6.60;;;2.05;;
3613;SDS011;1821;50.936;6.854;2023-03-14T01:44:20;9.60;;;2.10;;
3613;SDS011;1821;50.936;6.854;2023-03-14T01:45:01;6.60;;;2.05;;
3613;SDS011;1821;50.936;6.854;2023-03-14T01:46:47;6.45;;;2.50;;
3613;SDS011;1821;50.936;6.854;2023-03-14T01:47:31;7.45;;;2.30;;
3613;SDS011;1821;50.936;6.854;2023-03-14T01:48:13;4.90;;;1.60;;
3613;SDS011;1821;50.936;6.854;2023-03-14T01:49:03;7.25;;;1.80;;
3613;SDS011;1821;50.936;6.854;2023-03-14T01:50:03;4.95;;;1.77;;
3613;SDS011;1821;50.936;6.854;2023-03-14T01:50:49;7.93;;;2.20;;
3613;SDS011;1821;50.936;6.854;2023-03-14T01:52:27;5.40;;;1.80;;
3613;SDS011;1821;50.936;6.854;2023-03-14T01:53:14;5.40;;;1.73;;
3613;SDS011;1821;50.936;6.854;2023-03-14T01:54:19;4.50;;;1.88;;
3613;SDS011;1821;50.936;6.854;2023-03-14T01:55:48;4.20;;;1.50;;
3613;SDS011;1821;50.936;6.854;2023-03-14T01:56:33;4.85;;;1.73;;
3613;SDS011;1821;50.936;6.854;2023-03-14T01:57:37;4.28;;;1.77;;
3613;SDS011;1821;50.936;6.854;2023-03-14T01:58:22;4.30;;;1.30;;
3613;SDS011;1821;50.936;6.854;2023-03-14T01:59:05;3.77;;;1.00;;
3613;SDS011;1821;50.936;6.854;2023-03-14T01:59:56;5.20;;;1.20;;
3613;SDS011;1821;50.936;6.854;2023-03-14T02:00:39;4.95;;;1.30;;
3613;SDS011;1821;50.936;6.854;2023-03-14T02:01:24;8.32;;;1.40;;
3613;SDS011;1821;50.936;6.854;2023-03-14T02:02:07;2.63;;;1.10;;
3613;SDS011;1821;50.936;6.854;2023-03-14T02:02:54;4.07;;;1.20;;
3613;SDS011;1821;50.936;6.854;2023-03-14T02:03:44;5.43;;;1.60;;
3613;SDS011;1821;50.936;6.854;2023-03-14T02:04:40;5.40;;;1.60;;
3613;SDS011;1821;50.936;6.854;2023-03-14T02:05:25;4.70;;;1.67;;
3613;SDS011;1821;50.936;6.854;2023-03-14T02:06:10;4.80;;;1.90;;
3613;SDS011;1821;50.936;6.854;2023-03-14T02:06:56;3.92;;;1.77;;
3613;SDS011;1821;50.936;6.854;2023-03-14T02:07:59;5.65;;;2.17;;
3613;SDS011;1821;50.936;6.854;2023-03-14T02:08:42;7.20;;;2.42;;
3613;SDS011;1821;50.936;6.854;2023-03-14T02:09:28;7.82;;;1.60;;
3613;SDS011;1821;50.936;6.854;2023-03-14T02:10:14;9.98;;;1.80;;
3613;SDS011;1821;50.936;6.854;2023-03-14T02:10:59;5.13;;;1.80;;
3613;SDS011;1821;50.936;6.854;2023-03-14T02:11:43;4.72;;;1.60;;
3613;SDS011;1821;50.936;6.854;2023-03-14T02:12:29;4.03;;;1.40;;
3613;SDS011;1821;50.936;6.854;2023-03-14T02:13:11;4.32;;;1.10;;
3613;SDS011;1821;50.936;6.854;2023-03-14T02:13:55;3.70;;;1.40;;
3613;SDS011;1821;50.936;6.854;2023-03-14T02:14:39;3.55;;;1.45;;
3613;SDS011;1821;50.936;6.854;2023-03-14T02:15:23;3.78;;;1.30;;
3613;SDS011;1821;50.936;6.854;2023-03-14T02:16:06;3.47;;;1.40;;
3613;SDS011;1821;50.936;6.854;2023-03-14T02:16:48;3.47;;;1.60;;
3613;SDS011;1821;50.936;6.854;2023-03-14T02:17:30;3.88;;;1.25;;
3613;SDS011;1821;50.936;6.854;2023-03-14T02:18:13;4.30;;;1.27;;
3613;SDS011;1821;50.936;6.854;2023-03-14T02:18:57;3.13;;;1.20;;
3613;SDS011;1821;50.936;6.854;2023-03-14T02:22:09;3.17;;;1.30;;
3613;SDS011;1821;50.936;6.854;2023-03-14T02:22:52;5.05;;;1.50;;
3613;SDS011;1821;50.936;6.854;2023-03-14T02:23:41;8.98;;;1.70;;
3613;SDS011;1821;50.936;6.854;2023-03-14T02:27:05;5.05;;;1.50;;
3613;SDS011;1821;50.936;6.854;2023-03-14T02:27:47;4.80;;;1.40;;
3613;SDS011;1821;50.936;6.854;2023-03-14T02:28:30;4.60;;;1.13;;
3613;SDS011;1821;50.936;6.854;2023-03-14T02:29:12;3.15;;;1.20;;
3613;SDS011;1821;50.936;6.854;2023-03-14T02:29:59;3.67;;;1.20;;
3613;SDS011;1821;50.936;6.854;2023-03-14T02:30:42;4.22;;;1.20;;
3613;SDS011;1821;50.936;6.854;2023-03-14T02:31:25;4.22;;;1.20;;
3613;SDS011;1821;50.936;6.854;2023-03-14T02:32:08;2.90;;;1.25;;
3613;SDS011;1821;50.936;6.854;2023-03-14T02:32:54;2.50;;;1.00;;
3613;SDS011;1821;50.936;6.854;2023-03-14T02:33:40;3.42;;;1.10;;
3613;SDS011;1821;50.936;6.854;2023-03-14T02:34:22;2.42;;;1.15;;
3613;SDS011;1821;50.936;6.854;2023-03-14T02:35:06;4.53;;;1.23;;
3613;SDS011;1821;50.936;6.854;2023-03-14T02:35:53;4.30;;;1.10;;
3613;SDS011;1821;50.936;6.854;2023-03-14T02:36:43;4.05;;;1.48;;
3613;SDS011;1821;50.936;6.854;2023-03-14T02:37:27;4.95;;;1.58;;
3613;SDS011;1821;50.936;6.854;2023-03-14T02:38:19;4.10;;;1.10;;
3613;SDS011;1821;50.936;6.854;2023-03-14T02:39:19;2.58;;;0.90;;
3613;SDS011;1821;50.936;6.854;2023-03-14T02:40:08;5.22;;;1.88;;
3613;SDS011;1821;50.936;6.854;2023-03-14T02:40:50;7.78;;;2.00;;
3613;SDS011;1821;50.936;6.854;2023-03-14T02:41:32;5.55;;;1.40;;
3613;SDS011;1821;50.936;6.854;2023-03-14T02:42:15;3.65;;;1.40;;
3613;SDS011;1821;50.936;6.854;2023-03-14T02:42:57;6.90;;;1.40;;
3613;SDS011;1821;50.936;6.854;2023-03-14T02:43:39;4.47;;;1.30;;
3613;SDS011;1821;50.936;6.854;2023-03-14T02:44:21;3.67;;;1.27;;
3613;SDS011;1821;50.936;6.854;2023-03-14T02:45:51;3.25;;;1.00;;
3613;SDS011;1821;50.936;6.854;2023-03-14T02:46:36;5.55;;;1.23;;
3613;SDS011;1821;50.936;6.854;2023-03-14T02:47:18;4.18;;;1.10;;
3613;SDS011;1821;50.936;6.854;2023-03-14T02:48:04;3.53;;;1.00;;
3613;SDS011;1821;50.936;6.854;2023-03-14T02:48:51;3.00;;;1.20;;
3613;SDS011;1821;50.936;6.854;2023-03-14T02:49:37;3.13;;;1.00;;
3613;SDS011;1821;50.936;6.854;2023-03-14T02:50:20;3.50;;;1.33;;
3613;SDS011;1821;50.936;6.854;2023-03-14T02:51:06;3.03;;;1.30;;
3613;SDS011;1821;50.936;6.854;2023-03-14T02:51:49;2.75;;;1.10;;
3613;SDS011;1821;50.936;6.854;2023-03-14T02:52:31;3.00;;;1.10;;
3613;SDS011;1821;50.936;6.854;2023-03-14T02:53:15;4.63;;;1.33;;
3613;SDS011;1821;50.936;6.854;2023-03-14T02:53:59;4.15;;;1.60;;
3613;SDS011;1821;50.936;6.854;2023-03-14T02:54:41;5.35;;;2.10;;
3613;SDS011;1821;50.936;6.854;2023-03-14T02:55:24;6.15;;;1.83;;
3613;SDS011;1821;50.936;6.854;2023-03-14T02:56:08;7.25;;;1.60;;
3613;SDS011;1821;50.936;6.854;2023-03-14T02:56:50;4.90;;;1.52;;
3613;SDS011;1821;50.936;6.854;2023-03-14T02:57:32;4.60;;;1.67;;
3613;SDS011;1821;50.936;6.854;2023-03-14T02:58:17;4.45;;;1.60;;
3613;SDS011;1821;50.936;6.854;2023-03-14T02:59:02;3.55;;;1.42;;
3613;SDS011;1821;50.936;6.854;2023-03-14T02:59:45;5.60;;;1.60;;
3613;SDS011;1821;50.936;6.854;2023-03-14T03:00:27;5.60;;;2.00;;
3613;SDS011;1821;50.936;6.854;2023-03-14T03:01:14;5.85;;;2.40;;
3613;SDS011;1821;50.936;6.854;2023-03-14T03:01:56;6.20;;;2.33;;
3613;SDS011;1821;50.936;6.854;2023-03-14T03:02:38;6.22;;;2.58;;
3613;SDS011;1821;50.936;6.854;2023-03-14T03:03:23;5.68;;;2.72;;
3613;SDS011;1821;50.936;6.854;2023-03-14T03:04:06;8.20;;;2.92;;
3613;SDS011;1821;50.936;6.854;2023-03-14T03:04:47;8.52;;;3.00;;
3613;SDS011;1821;50.936;6.854;2023-03-14T03:05:30;9.32;;;3.28;;
3613;SDS011;1821;50.936;6.854;2023-03-14T03:06:11;8.70;;;3.50;;
3613;SDS011;1821;50.936;6.854;2023-03-14T03:06:54;9.03;;;3.50;;
3613;SDS011;1821;50.936;6.854;2023-03-14T03:07:36;4.97;;;2.60;;
3613;SDS011;1821;50.936;6.854;2023-03-14T03:08:18;7.97;;;3.47;;
3613;SDS011;1821;50.936;6.854;2023-03-14T03:09:01;8.55;;;3.25;;
3613;SDS011;1821;50.936;6.854;2023-03-14T03:09:43;6.32;;;2.67;;
3613;SDS011;1821;50.936;6.854;2023-03-14T03:10:26;4.82;;;2.67;;
3613;SDS011;1821;50.936;6.854;2023-03-14T03:11:09;7.30;;;2.80;;
3613;SDS011;1821;50.936;6.854;2023-03-14T03:11:51;5.60;;;2.45;;
3613;SDS011;1821;50.936;6.854;2023-03-14T03:12:33;7.03;;;2.85;;
3613;SDS011;1821;50.936;6.854;2023-03-14T03:13:15;7.97;;;2.78;;
3613;SDS011;1821;50.936;6.854;2023-03-14T03:13:57;7.47;;;2.78;;
3613;SDS011;1821;50.936;6.854;2023-03-14T03:14:39;6.40;;;2.42;;
3613;SDS011;1821;50.936;6.854;2023-03-14T03:15:23;7.03;;;2.92;;
3613;SDS011;1821;50.936;6.854;2023-03-14T03:16:06;6.95;;;2.60;;
3613;SDS011;1821;50.936;6.854;2023-03-14T03:16:51;8.40;;;2.60;;
3613;SDS011;1821;50.936;6.854;2023-03-14T03:17:32;5.90;;;2.30;;
3613;SDS011;1821;50.936;6.854;2023-03-14T03:18:14;7.10;;;2.60;;
3613;SDS011;1821;50.936;6.854;2023-03-14T03:18:57;8.93;;;2.85;;
3613;SDS011;1821;50.936;6.854;2023-03-14T03:19:39;9.65;;;2.60;;
3613;SDS011;1821;50.936;6.854;2023-03-14T03:20:21;10.13;;;2.90;;
3613;SDS011;1821;50.936;6.854;2023-03-14T03:21:04;8.13;;;2.97;;
3613;SDS011;1821;50.936;6.854;2023-03-14T03:21:49;10.90;;;3.55;;
3613;SDS011;1821;50.936;6.854;2023-03-14T03:22:33;12.30;;;3.38;;
3613;SDS011;1821;50.936;6.854;2023-03-14T03:23:15;10.45;;;2.40;;
3613;SDS011;1821;50.936;6.854;2023-03-14T03:23:57;8.38;;;2.50;;
3613;SDS011;1821;50.936;6.854;2023-03-14T03:24:41;8.00;;;2.50;;
3613;SDS011;1821;50.936;6.854;2023-03-14T03:25:24;7.55;;;2.50;;
3613;SDS011;1821;50.936;6.854;2023-03-14T03:26:09;5.57;;;2.13;;
3613;SDS011;1821;50.936;6.854;2023-03-14T03:26:51;7.47;;;2.50;;
3613;SDS011;1821;50.936;6.854;2023-03-14T03:27:37;9.30;;;2.50;;
3613;SDS011;1821;50.936;6.854;2023-03-14T03:28:19;7.28;;;2.30;;
3613;SDS011;1821;50.936;6.854;2023-03-14T03:29:01;6.88;;;2.40;;
3613;SDS011;1821;50.936;6.854;2023-03-14T03:29:43;8.40;;;2.33;;
3613;SDS011;1821;50.936;6.854;2023-03-14T03:30:25;6.88;;;2.17;;
3613;SDS011;1821;50.936;6.854;2023-03-14T03:31:10;5.32;;;2.13;;
3613;SDS011;1821;50.936;6.854;2023-03-14T03:31:52;8.68;;;2.92;;
3613;SDS011;1821;50.936;6.854;2023-03-14T03:32:34;8.73;;;2.60;;
3613;SDS011;1821;50.936;6.854;2023-03-14T03:33:16;9.52;;;2.65;;
3613;SDS011;1821;50.936;6.854;2023-03-14T03:33:58;10.98;;;2.88;;
3613;SDS011;1821;50.936;6.854;2023-03-14T03:34:41;10.48;;;2.35;;
3613;SDS011;1821;50.936;6.854;2023-03-14T03:35:22;11.50;;;2.30;;
3613;SDS011;1821;50.936;6.854;2023-03-14T03:36:04;8.07;;;2.50;;
3613;SDS011;1821;50.936;6.854;2023-03-14T03:36:49;8.00;;;2.40;;
3613;SDS011;1821;50.936;6.854;2023-03-14T03:37:33;5.70;;;2.30;;
3613;SDS011;1821;50.936;6.854;2023-03-14T03:38:15;6.88;;;2.80;;
3613;SDS011;1821;50.936;6.854;2023-03-14T03:38:58;6.78;;;2.60;;
3613;SDS011;1821;50.936;6.854;2023-03-14T03:39:39;6.43;;;2.30;;
3613;SDS011;1821;50.936;6.854;2023-03-14T03:40:22;4.50;;;2.10;;
3613;SDS011;1821;50.936;6.854;2023-03-14T03:41:04;8.68;;;2.25;;
3613;SDS011;1821;50.936;6.854;2023-03-14T03:41:47;5.35;;;2.40;;
3613;SDS011;1821;50.936;6.854;2023-03-14T03:42:32;5.03;;;2.22;;
3613;SDS011;1821;50.936;6.854;2023-03-14T03:43:14;6.68;;;2.15;;
3613;SDS011;1821;50.936;6.854;2023-03-14T03:43:56;9.13;;;2.47;;
3613;SDS011;1821;50.936;6.854;2023-03-14T03:44:38;7.07;;;2.40;;
3613;SDS011;1821;50.936;6.854;2023-03-14T03:45:23;8.40;;;2.20;;
3613;SDS011;1821;50.936;6.854;2023-03-14T03:46:05;9.75;;;2.03;;
3613;SDS011;1821;50.936;6.854;2023-03-14T03:46:48;7.90;;;2.10;;
3613;SDS011;1821;50.936;6.854;2023-03-14T03:47:30;5.68;;;2.10;;
3613;SDS011;1821;50.936;6.854;2023-03-14T03:48:13;7.45;;;2.67;;
3613;SDS011;1821;50.936;6.854;2023-03-14T03:48:55;8.77;;;2.50;;
3613;SDS011;1821;50.936;6.854;2023-03-14T03:49:38;9.52;;;2.40;;
3613;SDS011;1821;50.936;6.854;2023-03-14T03:50:20;8.88;;;2.45;;
3613;SDS011;1821;50.936;6.854;2023-03-14T03:51:02;8.02;;;2.40;;
3613;SDS011;1821;50.936;6.854;2023-03-14T03:51:45;5.35;;;2.05;;
3613;SDS011;1821;50.936;6.854;2023-03-14T03:52:26;6.80;;;2.15;;
3613;SDS011;1821;50.936;6.854;2023-03-14T03:53:08;9.80;;;2.70;;
3613;SDS011;1821;50.936;6.854;2023-03-14T03:53:52;6.93;;;2.50;;
3613;SDS011;1821;50.936;6.854;2023-03-14T03:54:36;7.88;;;2.83;;
3613;SDS011;1821;50.936;6.854;2023-03-14T03:55:18;10.55;;;3.40;;
3613;SDS011;1821;50.936;6.854;2023-03-14T03:56:00;6.85;;;2.50;;
3613;SDS011;1821;50.936;6.854;2023-03-14T03:56:42;7.80;;;2.38;;
3613;SDS011;1821;50.936;6.854;2023-03-14T03:57:24;9.63;;;2.30;;
3613;SDS011;1821;50.936;6.854;2023-03-14T03:58:07;7.30;;;2.30;;
3613;SDS011;1821;50.936;6.854;2023-03-14T03:58:51;6.32;;;2.58;;
3613;SDS011;1821;50.936;6.854;2023-03-14T03:59:33;7.00;;;2.40;;
3613;SDS011;1821;50.936;6.854;2023-03-14T04:00:15;7.10;;;2.08;;
3613;SDS011;1821;50.936;6.854;2023-03-14T04:00:57;6.28;;;2.20;;
3613;SDS011;1821;50.936;6.854;2023-03-14T04:01:40;7.00;;;2.70;;
3613;SDS011;1821;50.936;6.854;2023-03-14T04:02:22;6.70;;;2.55;;
3613;SDS011;1821;50.936;6.854;2023-03-14T04:03:04;7.75;;;2.08;;
3613;SDS011;1821;50.936;6.854;2023-03-14T04:03:49;7.35;;;2.20;;
3613;SDS011;1821;50.936;6.854;2023-03-14T04:04:33;8.27;;;2.40;;
3613;SDS011;1821;50.936;6.854;2023-03-14T04:05:16;6.72;;;2.60;;
3613;SDS011;1821;50.936;6.854;2023-03-14T04:06:02;7.15;;;2.03;;
3613;SDS011;1821;50.936;6.854;2023-03-14T04:06:48;9.50;;;2.15;;
3613;SDS011;1821;50.936;6.854;2023-03-14T04:07:33;9.10;;;2.00;;
3613;SDS011;1821;50.936;6.854;2023-03-14T04:08:18;8.90;;;2.60;;
3613;SDS011;1821;50.936;6.854;2023-03-14T04:09:00;7.47;;;2.50;;
3613;SDS011;1821;50.936;6.854;2023-03-14T04:09:42;8.63;;;2.50;;
3613;SDS011;1821;50.936;6.854;2023-03-14T04:10:27;7.82;;;2.15;;
3613;SDS011;1821;50.936;6.854;2023-03-14T04:11:11;7.00;;;2.20;;
3613;SDS011;1821;50.936;6.854;2023-03-14T04:11:53;7.38;;;2.33;;
3613;SDS011;1821;50.936;6.854;2023-03-14T04:12:35;4.78;;;2.03;;
3613;SDS011;1821;50.936;6.854;2023-03-14T04:13:18;4.78;;;1.70;;
3613;SDS011;1821;50.936;6.854;2023-03-14T04:14:00;8.10;;;2.20;;
3613;SDS011;1821;50.936;6.854;2023-03-14T04:14:42;7.22;;;2.20;;
3613;SDS011;1821;50.936;6.854;2023-03-14T04:15:24;7.10;;;2.20;;
3613;SDS011;1821;50.936;6.854;2023-03-14T04:16:12;8.13;;;2.28;;
3613;SDS011;1821;50.936;6.854;2023-03-14T04:17:02;8.02;;;2.20;;
3613;SDS011;1821;50.936;6.854;2023-03-14T04:17:46;7.35;;;2.22;;
3613;SDS011;1821;50.936;6.854;2023-03-14T04:18:28;7.97;;;2.47;;
3613;SDS011;1821;50.936;6.854;2023-03-14T04:19:11;7.65;;;2.28;;
3613;SDS011;1821;50.936;6.854;2023-03-14T04:19:53;6.43;;;2.08;;
3613;SDS011;1821;50.936;6.854;2023-03-14T04:20:35;7.88;;;2.30;;
3613;SDS011;1821;50.936;6.854;2023-03-14T04:21:18;6.13;;;1.90;;
3613;SDS011;1821;50.936;6.854;2023-03-14T04:22:00;6.90;;;1.80;;
3613;SDS011;1821;50.936;6.854;2023-03-14T04:22:41;6.68;;;1.70;;
3613;SDS011;1821;50.936;6.854;2023-03-14T04:23:24;7.60;;;2.28;;
3613;SDS011;1821;50.936;6.854;2023-03-14T04:24:06;6.95;;;2.40;;
3613;SDS011;1821;50.936;6.854;2023-03-14T04:24:51;6.20;;;1.92;;
3613;SDS011;1821;50.936;6.854;2023-03-14T04:25:33;4.28;;;1.73;;
3613;SDS011;1821;50.936;6.854;2023-03-14T04:26:15;6.82;;;2.15;;
3613;SDS011;1821;50.936;6.854;2023-03-14T04:26:58;6.53;;;2.17;;
3613;SDS011;1821;50.936;6.854;2023-03-14T04:27:40;5.28;;;1.85;;
3613;SDS011;1821;50.936;6.854;2023-03-14T04:28:22;5.28;;;2.10;;
3613;SDS011;1821;50.936;6.854;2023-03-14T04:29:04;3.45;;;1.52;;
3613;SDS011;1821;50.936;6.854;2023-03-14T04:29:48;6.28;;;2.13;;
3613;SDS011;1821;50.936;6.854;2023-03-14T04:30:32;8.50;;;1.90;;
3613;SDS011;1821;50.936;6.854;2023-03-14T04:31:17;6.22;;;1.83;;
3613;SDS011;1821;50.936;6.854;2023-03-14T04:32:04;7.55;;;1.80;;
3613;SDS011;1821;50.936;6.854;2023-03-14T04:32:48;6.03;;;1.50;;
3613;SDS011;1821;50.936;6.854;2023-03-14T04:33:30;7.22;;;1.85;;
3613;SDS011;1821;50.936;6.854;2023-03-14T04:34:12;6.20;;;2.00;;
3613;SDS011;1821;50.936;6.854;2023-03-14T04:34:56;6.78;;;2.00;;
3613;SDS011;1821;50.936;6.854;2023-03-14T04:35:39;7.70;;;1.80;;
3613;SDS011;1821;50.936;6.854;2023-03-14T04:36:23;5.97;;;1.80;;
3613;SDS011;1821;50.936;6.854;2023-03-14T04:37:05;5.45;;;1.75;;
3613;SDS011;1821;50.936;6.854;2023-03-14T04:37:47;7.70;;;1.85;;
3613;SDS011;1821;50.936;6.854;2023-03-14T04:38:30;6.65;;;2.00;;